Lynn, Alabama
Current Conditions -  °F | °C
As of 9:56 AM on Wednesday 26 Nov 2014 (Local Time) from K1M4 Reporting Station
Clear Clear  
Wind Chill: 44°   Ceiling: Unl
Heat Index: 44°   Visibility: 10mi
Dew Point: 27°   Wind: 0mph
Humidity: 52%   Direction: NA
Pressure: 30.19"   Gusts: NA
Location:  34.05°N, 87.55°W
Report Text: K1M4 261556Z AUTO 00000KT 10SM CLR 07/M03 A3019 RMK AO2 T00661027 SLP233
Loading
Personal Weather Stations






























Interactive Weather Map New forecast layout! Learn more

10-Day Weather Forecast

Advertisements
Track Severe Weather on mobile